sensor_id;sensor_type;location;lat;lon;timestamp;pressure;altitude;pressure_sealevel;temperature;humidity
32873;BME280;19224;52.462;16.898;2023-01-30T06:09:09;99190.38;;;0.67;100.00
32873;BME280;19224;52.462;16.898;2023-01-30T06:11:40;99196.04;;;0.69;100.00
32873;BME280;19224;52.462;16.898;2023-01-30T06:14:11;99176.67;;;0.67;100.00
32873;BME280;19224;52.462;16.898;2023-01-30T06:16:41;99187.98;;;0.74;100.00
32873;BME280;19224;52.462;16.898;2023-01-30T06:19:12;99206.92;;;0.76;100.00
32873;BME280;19224;52.462;16.898;2023-01-30T06:21:43;99187.44;;;0.79;100.00
32873;BME280;19224;52.462;16.898;2023-01-30T06:24:13;99179.02;;;0.79;100.00
32873;BME280;19224;52.462;16.898;2023-01-30T06:26:44;99178.50;;;0.83;100.00
32873;BME280;19224;52.462;16.898;2023-01-30T06:29:15;99179.33;;;0.85;100.00
32873;BME280;19224;52.462;16.898;2023-01-30T06:31:45;99184.91;;;0.92;100.00
32873;BME280;19224;52.462;16.898;2023-01-30T06:34:16;99181.34;;;0.93;100.00
32873;BME280;19224;52.462;16.898;2023-01-30T06:36:46;99168.52;;;0.94;100.00
32873;BME280;19224;52.462;16.898;2023-01-30T06:39:17;99154.79;;;0.94;100.00
32873;BME280;19224;52.462;16.898;2023-01-30T06:41:47;99163.95;;;0.99;100.00
32873;BME280;19224;52.462;16.898;2023-01-30T06:44:18;99173.20;;;1.00;100.00
32873;BME280;19224;52.462;16.898;2023-01-30T06:46:49;99155.86;;;1.05;100.00
32873;BME280;19224;52.462;16.898;2023-01-30T06:49:19;99144.35;;;1.06;100.00
32873;BME280;19224;52.462;16.898;2023-01-30T06:51:50;99166.38;;;1.08;100.00
32873;BME280;19224;52.462;16.898;2023-01-30T06:54:21;99145.65;;;1.07;100.00
32873;BME280;19224;52.462;16.898;2023-01-30T06:56:52;99132.34;;;1.09;100.00
32873;BME280;19224;52.462;16.898;2023-01-30T06:59:23;99133.75;;;1.06;100.00
32873;BME280;19224;52.462;16.898;2023-01-30T07:01:53;99131.84;;;1.11;100.00
32873;BME280;19224;52.462;16.898;2023-01-30T07:04:24;99125.09;;;1.15;100.00
32873;BME280;19224;52.462;16.898;2023-01-30T07:06:55;99127.03;;;1.09;100.00
32873;BME280;19224;52.462;16.898;2023-01-30T07:09:26;99116.49;;;1.07;100.00
32873;BME280;19224;52.462;16.898;2023-01-30T07:11:56;99118.23;;;1.08;100.00
32873;BME280;19224;52.462;16.898;2023-01-30T07:14:27;99119.50;;;1.10;100.00
32873;BME280;19224;52.462;16.898;2023-01-30T07:16:57;99111.63;;;1.07;100.00
32873;BME280;19224;52.462;16.898;2023-01-30T07:19:28;99100.12;;;1.08;100.00
32873;BME280;19224;52.462;16.898;2023-01-30T07:21:58;99086.45;;;1.07;100.00
32873;BME280;19224;52.462;16.898;2023-01-30T07:24:29;99101.91;;;1.07;100.00
32873;BME280;19224;52.462;16.898;2023-01-30T07:26:59;99093.84;;;1.12;100.00
32873;BME280;19224;52.462;16.898;2023-01-30T07:29:30;99093.84;;;1.12;100.00
32873;BME280;19224;52.462;16.898;2023-01-30T07:32:01;99085.20;;;1.20;100.00
32873;BME280;19224;52.462;16.898;2023-01-30T07:34:32;99099.77;;;1.21;100.00
32873;BME280;19224;52.462;16.898;2023-01-30T07:37:03;99106.17;;;1.29;100.00
32873;BME280;19224;52.462;16.898;2023-01-30T07:39:34;99073.54;;;1.27;100.00
32873;BME280;19224;52.462;16.898;2023-01-30T07:42:05;99087.20;;;1.28;100.00
32873;BME280;19224;52.462;16.898;2023-01-30T07:44:36;99095.06;;;1.31;100.00
32873;BME280;19224;52.462;16.898;2023-01-30T07:47:11;99090.97;;;1.35;100.00
32873;BME280;19224;52.462;16.898;2023-01-30T07:49:41;99086.05;;;1.38;100.00
32873;BME280;19224;52.462;16.898;2023-01-30T07:52:12;99089.02;;;1.42;100.00
32873;BME280;19224;52.462;16.898;2023-01-30T07:54:43;99090.28;;;1.45;100.00
32873;BME280;19224;52.462;16.898;2023-01-30T07:57:13;99101.20;;;1.49;100.00
32873;BME280;19224;52.462;16.898;2023-01-30T07:59:44;99087.03;;;1.50;100.00
32873;BME280;19224;52.462;16.898;2023-01-30T08:02:14;99083.88;;;1.52;100.00
32873;BME280;19224;52.462;16.898;2023-01-30T08:04:45;99083.45;;;1.51;100.00
32873;BME280;19224;52.462;16.898;2023-01-30T08:07:15;99080.65;;;1.57;100.00
32873;BME280;19224;52.462;16.898;2023-01-30T08:09:46;99067.45;;;1.54;100.00
32873;BME280;19224;52.462;16.898;2023-01-30T08:12:16;99076.09;;;1.60;100.00
32873;BME280;19224;52.462;16.898;2023-01-30T08:14:47;99064.13;;;1.62;100.00
32873;BME280;19224;52.462;16.898;2023-01-30T08:17:17;99071.00;;;1.69;100.00
32873;BME280;19224;52.462;16.898;2023-01-30T08:19:48;99054.07;;;1.73;100.00
32873;BME280;19224;52.462;16.898;2023-01-30T08:22:21;99042.51;;;1.75;100.00
32873;BME280;19224;52.462;16.898;2023-01-30T08:24:52;99049.55;;;1.76;100.00
32873;BME280;19224;52.462;16.898;2023-01-30T08:27:23;99045.50;;;1.78;100.00
32873;BME280;19224;52.462;16.898;2023-01-30T08:29:54;99052.20;;;1.91;100.00
32873;BME280;19224;52.462;16.898;2023-01-30T08:32:27;99051.45;;;2.00;100.00
32873;BME280;19224;52.462;16.898;2023-01-30T08:34:58;99064.05;;;2.08;100.00
32873;BME280;19224;52.462;16.898;2023-01-30T08:37:28;99048.56;;;2.08;100.00
32873;BME280;19224;52.462;16.898;2023-01-30T08:39:59;99047.13;;;2.11;100.00
32873;BME280;19224;52.462;16.898;2023-01-30T08:42:29;99059.55;;;2.10;100.00
32873;BME280;19224;52.462;16.898;2023-01-30T08:45:00;99046.03;;;2.18;100.00
32873;BME280;19224;52.462;16.898;2023-01-30T08:54:20;99029.19;;;2.19;100.00
32873;BME280;19224;52.462;16.898;2023-01-30T08:56:51;99023.69;;;2.25;100.00
32873;BME280;19224;52.462;16.898;2023-01-30T08:59:22;99035.67;;;2.23;100.00
32873;BME280;19224;52.462;16.898;2023-01-30T09:01:52;99021.74;;;2.29;100.00
32873;BME280;19224;52.462;16.898;2023-01-30T09:04:23;99033.28;;;2.28;100.00
32873;BME280;19224;52.462;16.898;2023-01-30T09:06:55;99027.72;;;2.36;100.00
32873;BME280;19224;52.462;16.898;2023-01-30T09:09:27;99038.34;;;2.36;100.00
32873;BME280;19224;52.462;16.898;2023-01-30T09:11:57;99040.66;;;2.33;100.00
32873;BME280;19224;52.462;16.898;2023-01-30T09:14:28;99024.80;;;2.30;100.00
32873;BME280;19224;52.462;16.898;2023-01-30T09:16:59;99023.14;;;2.41;100.00
32873;BME280;19224;52.462;16.898;2023-01-30T09:19:30;99040.71;;;2.45;100.00
32873;BME280;19224;52.462;16.898;2023-01-30T09:22:03;99033.70;;;2.42;100.00
32873;BME280;19224;52.462;16.898;2023-01-30T09:24:35;99036.36;;;2.42;100.00
32873;BME280;19224;52.462;16.898;2023-01-30T09:27:09;99034.98;;;2.44;100.00
32873;BME280;19224;52.462;16.898;2023-01-30T09:29:42;99029.64;;;2.45;100.00
32873;BME280;19224;52.462;16.898;2023-01-30T09:32:12;99019.61;;;2.40;100.00
32873;BME280;19224;52.462;16.898;2023-01-30T09:34:43;99018.23;;;2.42;100.00
32873;BME280;19224;52.462;16.898;2023-01-30T09:37:14;99033.11;;;2.47;100.00
32873;BME280;19224;52.462;16.898;2023-01-30T09:39:44;99023.33;;;2.48;100.00
32873;BME280;19224;52.462;16.898;2023-01-30T09:42:33;99034.88;;;2.47;100.00
32873;BME280;19224;52.462;16.898;2023-01-30T09:54:29;99018.86;;;2.63;100.00
32873;BME280;19224;52.462;16.898;2023-01-30T09:57:10;99017.31;;;2.56;100.00
32873;BME280;19224;52.462;16.898;2023-01-30T10:09:05;99002.44;;;2.63;100.00
32873;BME280;19224;52.462;16.898;2023-01-30T10:11:42;98996.00;;;2.70;100.00
32873;BME280;19224;52.462;16.898;2023-01-30T10:20:43;98987.72;;;2.79;100.00
32873;BME280;19224;52.462;16.898;2023-01-30T10:26:15;98979.64;;;2.94;100.00
32873;BME280;19224;52.462;16.898;2023-01-30T10:29:13;98966.59;;;2.99;100.00
32873;BME280;19224;52.462;16.898;2023-01-30T10:34:34;98977.87;;;2.94;100.00
32873;BME280;19224;52.462;16.898;2023-01-30T10:37:10;98982.78;;;2.93;100.00
32873;BME280;19224;52.462;16.898;2023-01-30T10:46:34;98975.25;;;2.93;100.00
32873;BME280;19224;52.462;16.898;2023-01-30T10:55:24;98955.11;;;3.10;100.00
32873;BME280;19224;52.462;16.898;2023-01-30T10:58:11;98949.77;;;3.23;100.00
32873;BME280;19224;52.462;16.898;2023-01-30T11:00:56;98949.37;;;3.22;100.00
32873;BME280;19224;52.462;16.898;2023-01-30T11:06:21;98948.02;;;3.34;100.00
32873;BME280;19224;52.462;16.898;2023-01-30T11:08:47;98951.27;;;3.42;100.00
32873;BME280;19224;52.462;16.898;2023-01-30T11:11:50;98944.09;;;3.44;100.00
32873;BME280;19224;52.462;16.898;2023-01-30T11:14:21;98947.79;;;3.51;100.00
32873;BME280;19224;52.462;16.898;2023-01-30T11:16:55;98942.25;;;3.57;100.00
32873;BME280;19224;52.462;16.898;2023-01-30T11:19:33;98940.96;;;3.56;100.00
32873;BME280;19224;52.462;16.898;2023-01-30T11:22:06;98940.52;;;3.56;100.00
32873;BME280;19224;52.462;16.898;2023-01-30T11:24:43;98931.65;;;3.56;100.00
32873;BME280;19224;52.462;16.898;2023-01-30T11:27:24;98928.45;;;3.58;100.00
32873;BME280;19224;52.462;16.898;2023-01-30T11:30:17;98925.49;;;3.65;100.00
32873;BME280;19224;52.462;16.898;2023-01-30T11:32:50;98926.07;;;3.73;100.00
32873;BME280;19224;52.462;16.898;2023-01-30T11:35:30;98914.44;;;3.76;100.00
32873;BME280;19224;52.462;16.898;2023-01-30T11:38:21;98905.25;;;3.73;100.00
32873;BME280;19224;52.462;16.898;2023-01-30T11:41:20;98906.63;;;3.71;100.00
32873;BME280;19224;52.462;16.898;2023-01-30T11:43:52;98904.64;;;3.76;100.00
32873;BME280;19224;52.462;16.898;2023-01-30T11:46:24;98900.81;;;3.83;100.00
32873;BME280;19224;52.462;16.898;2023-01-30T11:49:09;98899.66;;;3.90;100.00
32873;BME280;19224;52.462;16.898;2023-01-30T11:51:33;98904.58;;;3.99;100.00
32873;BME280;19224;52.462;16.898;2023-01-30T11:54:14;98901.86;;;4.01;100.00
32873;BME280;19224;52.462;16.898;2023-01-30T11:56:54;98908.08;;;4.01;100.00
32873;BME280;19224;52.462;16.898;2023-01-30T12:02:36;98898.56;;;4.06;100.00
32873;BME280;19224;52.462;16.898;2023-01-30T12:05:29;98888.71;;;4.08;100.00
32873;BME280;19224;52.462;16.898;2023-01-30T12:10:31;98884.77;;;4.06;100.00
32873;BME280;19224;52.462;16.898;2023-01-30T12:13:48;98886.23;;;4.03;100.00
32873;BME280;19224;52.462;16.898;2023-01-30T12:15:40;98901.68;;;4.05;100.00
32873;BME280;19224;52.462;16.898;2023-01-30T12:18:29;98892.22;;;4.08;100.00
32873;BME280;19224;52.462;16.898;2023-01-30T12:24:24;98874.02;;;4.29;100.00
32873;BME280;19224;52.462;16.898;2023-01-30T12:27:24;98877.77;;;4.45;100.00
32873;BME280;19224;52.462;16.898;2023-01-30T12:29:44;98853.76;;;4.55;100.00
32873;BME280;19224;52.462;16.898;2023-01-30T12:32:18;98855.48;;;4.66;100.00
32873;BME280;19224;52.462;16.898;2023-01-30T12:34:50;98853.35;;;4.74;100.00
32873;BME280;19224;52.462;16.898;2023-01-30T12:37:36;98853.89;;;4.82;100.00
32873;BME280;19224;52.462;16.898;2023-01-30T12:40:32;98867.61;;;4.93;100.00
32873;BME280;19224;52.462;16.898;2023-01-30T12:49:04;98844.80;;;4.86;100.00
32873;BME280;19224;52.462;16.898;2023-01-30T12:51:51;98842.68;;;4.84;100.00
32873;BME280;19224;52.462;16.898;2023-01-30T12:54:43;98832.02;;;4.74;100.00
32873;BME280;19224;52.462;16.898;2023-01-30T12:57:39;98828.01;;;4.84;100.00
32873;BME280;19224;52.462;16.898;2023-01-30T13:00:27;98830.91;;;4.98;100.00
32873;BME280;19224;52.462;16.898;2023-01-30T13:03:13;98824.30;;;5.06;100.00
32873;BME280;19224;52.462;16.898;2023-01-30T13:08:58;98813.96;;;4.99;100.00
32873;BME280;19224;52.462;16.898;2023-01-30T13:11:58;98820.70;;;5.07;100.00
32873;BME280;19224;52.462;16.898;2023-01-30T13:14:47;98811.05;;;5.32;100.00
32873;BME280;19224;52.462;16.898;2023-01-30T13:17:43;98820.03;;;5.58;100.00
32873;BME280;19224;52.462;16.898;2023-01-30T13:23:13;98828.84;;;5.41;100.00
32873;BME280;19224;52.462;16.898;2023-01-30T13:28:48;98841.53;;;5.18;100.00
32873;BME280;19224;52.462;16.898;2023-01-30T13:31:13;98838.34;;;5.10;100.00
32873;BME280;19224;52.462;16.898;2023-01-30T13:33:48;98838.40;;;5.00;100.00
32873;BME280;19224;52.462;16.898;2023-01-30T13:36:30;98830.66;;;4.94;100.00
32873;BME280;19224;52.462;16.898;2023-01-30T13:39:05;98841.33;;;4.94;100.00
32873;BME280;19224;52.462;16.898;2023-01-30T13:41:41;98838.25;;;5.03;100.00
32873;BME280;19224;52.462;16.898;2023-01-30T13:44:27;98824.23;;;4.98;100.00
32873;BME280;19224;52.462;16.898;2023-01-30T13:59:08;98832.72;;;4.97;100.00
32873;BME280;19224;52.462;16.898;2023-01-30T14:04:45;98840.36;;;4.76;100.00
32873;BME280;19224;52.462;16.898;2023-01-30T14:07:42;98833.70;;;4.76;100.00
32873;BME280;19224;52.462;16.898;2023-01-30T14:10:15;98832.81;;;4.76;100.00
32873;BME280;19224;52.462;16.898;2023-01-30T14:12:53;98825.66;;;4.58;100.00
32873;BME280;19224;52.462;16.898;2023-01-30T14:15:26;98837.25;;;4.57;100.00
32873;BME280;19224;52.462;16.898;2023-01-30T14:18:16;98856.45;;;4.45;100.00
32873;BME280;19224;52.462;16.898;2023-01-30T14:20:50;98845.78;;;4.25;100.00
32873;BME280;19224;52.462;16.898;2023-01-30T14:23:35;98858.36;;;4.22;100.00
32873;BME280;19224;52.462;16.898;2023-01-30T14:26:06;98836.30;;;4.18;100.00
32873;BME280;19224;52.462;16.898;2023-01-30T14:28:45;98844.97;;;4.13;100.00
32873;BME280;19224;52.462;16.898;2023-01-30T14:31:45;98856.66;;;4.09;100.00
32873;BME280;19224;52.462;16.898;2023-01-30T14:34:43;98845.09;;;4.00;100.00
32873;BME280;19224;52.462;16.898;2023-01-30T14:49:02;98864.95;;;4.13;100.00
32873;BME280;19224;52.462;16.898;2023-01-30T14:51:43;98859.28;;;4.11;100.00
32873;BME280;19224;52.462;16.898;2023-01-30T14:54:19;98857.99;;;4.09;100.00
32873;BME280;19224;52.462;16.898;2023-01-30T14:57:14;98851.28;;;4.11;100.00
32873;BME280;19224;52.462;16.898;2023-01-30T15:02:27;98877.47;;;4.11;100.00
32873;BME280;19224;52.462;16.898;2023-01-30T15:05:11;98886.77;;;4.01;100.00
32873;BME280;19224;52.462;16.898;2023-01-30T15:07:43;98867.11;;;4.04;100.00
32873;BME280;19224;52.462;16.898;2023-01-30T15:10:27;98879.71;;;4.00;100.00
32873;BME280;19224;52.462;16.898;2023-01-30T15:13:13;98873.29;;;3.94;100.00
32873;BME280;19224;52.462;16.898;2023-01-30T15:24:18;98866.66;;;4.04;100.00
32873;BME280;19224;52.462;16.898;2023-01-30T15:30:19;98860.07;;;4.13;100.00
32873;BME280;19224;52.462;16.898;2023-01-30T15:32:49;98866.08;;;4.08;100.00
32873;BME280;19224;52.462;16.898;2023-01-30T15:35:26;98859.52;;;4.05;100.00
32873;BME280;19224;52.462;16.898;2023-01-30T15:37:57;98863.46;;;4.06;100.00
32873;BME280;19224;52.462;16.898;2023-01-30T15:40:29;98873.18;;;4.07;100.00
32873;BME280;19224;52.462;16.898;2023-01-30T15:46:05;98860.45;;;4.04;100.00
32873;BME280;19224;52.462;16.898;2023-01-30T15:51:45;98871.42;;;3.96;100.00
32873;BME280;19224;52.462;16.898;2023-01-30T15:54:19;98864.34;;;3.85;100.00
32873;BME280;19224;52.462;16.898;2023-01-30T15:56:50;98876.11;;;3.80;100.00
32873;BME280;19224;52.462;16.898;2023-01-30T15:59:28;98882.84;;;3.78;100.00
32873;BME280;19224;52.462;16.898;2023-01-30T16:02:12;98874.42;;;3.77;100.00
32873;BME280;19224;52.462;16.898;2023-01-30T16:04:39;98878.95;;;3.75;100.00
32873;BME280;19224;52.462;16.898;2023-01-30T16:07:25;98888.80;;;3.73;100.00
32873;BME280;19224;52.462;16.898;2023-01-30T16:09:55;98884.86;;;3.72;100.00
32873;BME280;19224;52.462;16.898;2023-01-30T16:12:29;98875.80;;;3.66;100.00
32873;BME280;19224;52.462;16.898;2023-01-30T16:15:00;98865.20;;;3.64;100.00
32873;BME280;19224;52.462;16.898;2023-01-30T16:17:31;98864.27;;;3.65;100.00
32873;BME280;19224;52.462;16.898;2023-01-30T16:20:03;98869.59;;;3.65;100.00
32873;BME280;19224;52.462;16.898;2023-01-30T16:22:35;98875.00;;;3.64;100.00
32873;BME280;19224;52.462;16.898;2023-01-30T16:25:14;98879.31;;;3.66;100.00
32873;BME280;19224;52.462;16.898;2023-01-30T16:27:40;98877.35;;;3.71;100.00
32873;BME280;19224;52.462;16.898;2023-01-30T16:30:12;98872.03;;;3.71;100.00
32873;BME280;19224;52.462;16.898;2023-01-30T16:32:43;98880.69;;;3.76;100.00
32873;BME280;19224;52.462;16.898;2023-01-30T16:35:28;98891.33;;;3.76;100.00
32873;BME280;19224;52.462;16.898;2023-01-30T16:38:01;98910.98;;;3.74;100.00
32873;BME280;19224;52.462;16.898;2023-01-30T16:40:44;98910.09;;;3.73;100.00
32873;BME280;19224;52.462;16.898;2023-01-30T16:43:26;98916.13;;;3.67;100.00
32873;BME280;19224;52.462;16.898;2023-01-30T16:52:04;98932.88;;;3.47;100.00
32873;BME280;19224;52.462;16.898;2023-01-30T16:54:35;98943.84;;;3.50;100.00
32873;BME280;19224;52.462;16.898;2023-01-30T16:59:47;98942.77;;;3.44;100.00
32873;BME280;19224;52.462;16.898;2023-01-30T17:02:37;98937.67;;;3.49;100.00
32873;BME280;19224;52.462;16.898;2023-01-30T17:05:26;98934.25;;;3.46;100.00
32873;BME280;19224;52.462;16.898;2023-01-30T17:07:53;98937.67;;;3.49;100.00
32873;BME280;19224;52.462;16.898;2023-01-30T17:10:49;98935.36;;;3.40;100.00
32873;BME280;19224;52.462;16.898;2023-01-30T17:13:39;98940.28;;;3.39;100.00
32873;BME280;19224;52.462;16.898;2023-01-30T17:16:26;98948.91;;;3.34;100.00
32873;BME280;19224;52.462;16.898;2023-01-30T17:18:57;98958.50;;;3.38;100.00
32873;BME280;19224;52.462;16.898;2023-01-30T17:21:47;98962.61;;;3.35;100.00
32873;BME280;19224;52.462;16.898;2023-01-30T17:24:18;98957.61;;;3.38;100.00
32873;BME280;19224;52.462;16.898;2023-01-30T17:26:57;98955.03;;;3.36;100.00
32873;BME280;19224;52.462;16.898;2023-01-30T17:29:31;98972.53;;;3.30;100.00
32873;BME280;19224;52.462;16.898;2023-01-30T17:32:14;98956.89;;;3.34;100.00
32873;BME280;19224;52.462;16.898;2023-01-30T17:34:37;98964.87;;;3.34;100.00
32873;BME280;19224;52.462;16.898;2023-01-30T17:37:19;98973.34;;;3.32;100.00
32873;BME280;19224;52.462;16.898;2023-01-30T17:39:47;98966.81;;;3.29;100.00
32873;BME280;19224;52.462;16.898;2023-01-30T17:42:18;98972.53;;;3.30;100.00
32873;BME280;19224;52.462;16.898;2023-01-30T17:44:50;98980.28;;;3.25;100.00
32873;BME280;19224;52.462;16.898;2023-01-30T17:47:21;98991.80;;;3.25;100.00
32873;BME280;19224;52.462;16.898;2023-01-30T17:49:51;98980.19;;;3.28;100.00
32873;BME280;19224;52.462;16.898;2023-01-30T17:52:24;98990.83;;;3.28;100.00
32873;BME280;19224;52.462;16.898;2023-01-30T17:54:54;98990.75;;;3.29;100.00
32873;BME280;19224;52.462;16.898;2023-01-30T17:57:25;98989.42;;;3.29;100.00
32873;BME280;19224;52.462;16.898;2023-01-30T17:59:55;98998.73;;;3.29;100.00
32873;BME280;19224;52.462;16.898;2023-01-30T18:02:28;98996.31;;;3.35;100.00
32873;BME280;19224;52.462;16.898;2023-01-30T18:05:00;99006.59;;;3.32;100.00
32873;BME280;19224;52.462;16.898;2023-01-30T18:07:31;99004.38;;;3.33;100.00
32873;BME280;19224;52.462;16.898;2023-01-30T18:10:01;99009.05;;;3.38;100.00
32873;BME280;19224;52.462;16.898;2023-01-30T18:12:32;99017.27;;;3.44;100.00
32873;BME280;19224;52.462;16.898;2023-01-30T18:15:03;99020.04;;;3.52;100.00
32873;BME280;19224;52.462;16.898;2023-01-30T18:17:36;99022.58;;;3.55;100.00
32873;BME280;19224;52.462;16.898;2023-01-30T18:20:11;99012.37;;;3.56;100.00
32873;BME280;19224;52.462;16.898;2023-01-30T18:22:42;99030.34;;;3.61;100.00
32873;BME280;19224;52.462;16.898;2023-01-30T18:25:13;99031.68;;;3.61;100.00
32873;BME280;19224;52.462;16.898;2023-01-30T18:27:44;99036.36;;;3.66;100.00
32873;BME280;19224;52.462;16.898;2023-01-30T18:30:16;99038.21;;;3.64;100.00
32873;BME280;19224;52.462;16.898;2023-01-30T18:32:48;99048.24;;;3.69;100.00
32873;BME280;19224;52.462;16.898;2023-01-30T18:35:18;99055.75;;;3.70;100.00
32873;BME280;19224;52.462;16.898;2023-01-30T18:37:49;99054.49;;;3.68;100.00
32873;BME280;19224;52.462;16.898;2023-01-30T18:40:20;99053.16;;;3.68;100.00
32873;BME280;19224;52.462;16.898;2023-01-30T18:42:51;99055.91;;;3.65;100.00
32873;BME280;19224;52.462;16.898;2023-01-30T18:45:21;99063.81;;;3.68;100.00
32873;BME280;19224;52.462;16.898;2023-01-30T18:47:52;99062.08;;;3.67;100.00
32873;BME280;19224;52.462;16.898;2023-01-30T18:50:23;99077.69;;;3.65;100.00
32873;BME280;19224;52.462;16.898;2023-01-30T18:52:53;99096.08;;;3.71;100.00
32873;BME280;19224;52.462;16.898;2023-01-30T18:55:24;99089.66;;;3.76;100.00
32873;BME280;19224;52.462;16.898;2023-01-30T18:57:56;99082.08;;;3.77;100.00
32873;BME280;19224;52.462;16.898;2023-01-30T19:00:28;99100.79;;;3.76;100.00
32873;BME280;19224;52.462;16.898;2023-01-30T19:02:58;99077.00;;;3.71;100.00
32873;BME280;19224;52.462;16.898;2023-01-30T19:05:29;99094.02;;;3.67;100.00
32873;BME280;19224;52.462;16.898;2023-01-30T19:07:59;99099.39;;;3.66;100.00
32873;BME280;19224;52.462;16.898;2023-01-30T19:10:39;99098.14;;;3.51;100.00
32873;BME280;19224;52.462;16.898;2023-01-30T19:13:10;99086.80;;;3.46;100.00
32873;BME280;19224;52.462;16.898;2023-01-30T19:16:01;99087.41;;;3.41;100.00
32873;BME280;19224;52.462;16.898;2023-01-30T19:18:32;99090.28;;;3.48;100.00
32873;BME280;19224;52.462;16.898;2023-01-30T19:21:02;99087.73;;;3.45;100.00
32873;BME280;19224;52.462;16.898;2023-01-30T19:23:33;99091.97;;;3.51;100.00
32873;BME280;19224;52.462;16.898;2023-01-30T19:26:03;99114.39;;;3.55;100.00
32873;BME280;19224;52.462;16.898;2023-01-30T19:28:34;99120.16;;;3.56;100.00
32873;BME280;19224;52.462;16.898;2023-01-30T19:31:09;99111.53;;;3.61;100.00
32873;BME280;19224;52.462;16.898;2023-01-30T19:33:43;99126.16;;;3.61;100.00
32873;BME280;19224;52.462;16.898;2023-01-30T19:36:20;99138.83;;;3.66;100.00
32873;BME280;19224;52.462;16.898;2023-01-30T19:38:51;99137.30;;;3.72;100.00
32873;BME280;19224;52.462;16.898;2023-01-30T19:41:25;99139.08;;;3.72;100.00
32873;BME280;19224;52.462;16.898;2023-01-30T19:43:58;99134.52;;;3.75;100.00
32873;BME280;19224;52.462;16.898;2023-01-30T19:46:29;99135.00;;;3.75;100.00
32873;BME280;19224;52.462;16.898;2023-01-30T19:49:00;99137.25;;;3.74;100.00
32873;BME280;19224;52.462;16.898;2023-01-30T19:51:33;99135.97;;;3.72;100.00
32873;BME280;19224;52.462;16.898;2023-01-30T19:54:08;99151.38;;;3.76;100.00
32873;BME280;19224;52.462;16.898;2023-01-30T19:56:39;99146.21;;;3.71;100.00
32873;BME280;19224;52.462;16.898;2023-01-30T19:59:12;99145.73;;;3.72;100.00
32873;BME280;19224;52.462;16.898;2023-01-30T20:01:44;99147.02;;;3.73;100.00
32873;BME280;19224;52.462;16.898;2023-01-30T20:04:15;99157.55;;;3.76;100.00
32873;BME280;19224;52.462;16.898;2023-01-30T20:06:45;99149.92;;;3.67;100.00
32873;BME280;19224;52.462;16.898;2023-01-30T20:09:16;99158.64;;;3.71;100.00
32873;BME280;19224;52.462;16.898;2023-01-30T20:11:47;99173.44;;;3.66;100.00
32873;BME280;19224;52.462;16.898;2023-01-30T20:14:17;99171.41;;;3.61;100.00
32873;BME280;19224;52.462;16.898;2023-01-30T20:16:48;99186.45;;;3.62;100.00
32873;BME280;19224;52.462;16.898;2023-01-30T20:19:19;99179.40;;;3.61;100.00
32873;BME280;19224;52.462;16.898;2023-01-30T20:21:49;99176.62;;;3.64;100.00
32873;BME280;19224;52.462;16.898;2023-01-30T20:24:19;99172.18;;;3.65;100.00
32873;BME280;19224;52.462;16.898;2023-01-30T20:26:50;99176.42;;;3.70;100.00
32873;BME280;19224;52.462;16.898;2023-01-30T20:29:20;99180.86;;;3.70;100.00
32873;BME280;19224;52.462;16.898;2023-01-30T20:31:53;99176.83;;;3.71;100.00
32873;BME280;19224;52.462;16.898;2023-01-30T20:34:23;99187.67;;;3.78;100.00
32873;BME280;19224;52.462;16.898;2023-01-30T20:36:54;99200.47;;;3.80;100.00
32873;BME280;19224;52.462;16.898;2023-01-30T20:39:24;99188.81;;;3.83;100.00
32873;BME280;19224;52.462;16.898;2023-01-30T20:41:54;99191.03;;;3.83;100.00
32873;BME280;19224;52.462;16.898;2023-01-30T20:44:25;99193.58;;;3.86;100.00
32873;BME280;19224;52.462;16.898;2023-01-30T20:46:55;99194.09;;;3.84;100.00
32873;BME280;19224;52.462;16.898;2023-01-30T20:49:26;99197.53;;;3.88;100.00
32873;BME280;19224;52.462;16.898;2023-01-30T20:51:56;99203.50;;;3.94;100.00
32873;BME280;19224;52.462;16.898;2023-01-30T20:54:26;99211.05;;;3.95;100.00
32873;BME280;19224;52.462;16.898;2023-01-30T20:56:57;99212.14;;;4.01;100.00
32873;BME280;19224;52.462;16.898;2023-01-30T20:59:27;99213.47;;;4.01;100.00
32873;BME280;19224;52.462;16.898;2023-01-30T21:01:58;99223.84;;;3.97;100.00
32873;BME280;19224;52.462;16.898;2023-01-30T21:04:28;99236.83;;;3.93;100.00
32873;BME280;19224;52.462;16.898;2023-01-30T21:06:58;99230.53;;;3.95;100.00
32873;BME280;19224;52.462;16.898;2023-01-30T21:09:29;99245.39;;;4.02;100.00
32873;BME280;19224;52.462;16.898;2023-01-30T21:11:59;99251.73;;;3.98;100.00
32873;BME280;19224;52.462;16.898;2023-01-30T21:14:30;99249.95;;;3.99;100.00
32873;BME280;19224;52.462;16.898;2023-01-30T21:17:00;99247.93;;;4.05;100.00
32873;BME280;19224;52.462;16.898;2023-01-30T21:19:30;99248.13;;;4.12;100.00
32873;BME280;19224;52.462;16.898;2023-01-30T21:22:01;99243.94;;;4.05;100.00
32873;BME280;19224;52.462;16.898;2023-01-30T21:24:33;99250.44;;;4.10;100.00
32873;BME280;19224;52.462;16.898;2023-01-30T21:27:04;99278.77;;;4.12;100.00
32873;BME280;19224;52.462;16.898;2023-01-30T21:29:35;99257.38;;;4.14;100.00
32873;BME280;19224;52.462;16.898;2023-01-30T21:32:06;99263.35;;;4.09;100.00
32873;BME280;19224;52.462;16.898;2023-01-30T21:34:37;99272.19;;;4.09;100.00
32873;BME280;19224;52.462;16.898;2023-01-30T21:37:07;99268.84;;;4.04;100.00
32873;BME280;19224;52.462;16.898;2023-01-30T21:39:55;99281.75;;;4.03;100.00
32873;BME280;19224;52.462;16.898;2023-01-30T21:42:43;99289.63;;;4.06;100.00
32873;BME280;19224;52.462;16.898;2023-01-30T21:45:32;99296.17;;;4.09;100.00
32873;BME280;19224;52.462;16.898;2023-01-30T21:48:03;99290.66;;;4.02;100.00
32873;BME280;19224;52.462;16.898;2023-01-30T21:50:34;99297.08;;;3.97;100.00